sensor_id;sensor_type;location;lat;lon;timestamp;P1;durP1;ratioP1;P2;durP2;ratioP2
7191;SDS011;3637;51.494;11.958;2024-02-21T00:00:18;9.03;;;3.73;;
7191;SDS011;3637;51.494;11.958;2024-02-21T00:03:25;12.40;;;4.27;;
7191;SDS011;3637;51.494;11.958;2024-02-21T00:06:27;10.40;;;3.83;;
7191;SDS011;3637;51.494;11.958;2024-02-21T00:09:36;10.97;;;4.63;;
7191;SDS011;3637;51.494;11.958;2024-02-21T00:12:38;8.90;;;3.90;;
7191;SDS011;3637;51.494;11.958;2024-02-21T00:15:40;10.30;;;4.10;;
7191;SDS011;3637;51.494;11.958;2024-02-21T00:18:45;10.90;;;4.20;;
7191;SDS011;3637;51.494;11.958;2024-02-21T00:21:47;12.83;;;4.23;;
7191;SDS011;3637;51.494;11.958;2024-02-21T00:24:57;12.57;;;4.20;;
7191;SDS011;3637;51.494;11.958;2024-02-21T00:27:59;9.83;;;4.23;;
7191;SDS011;3637;51.494;11.958;2024-02-21T00:31:07;6.50;;;3.40;;
7191;SDS011;3637;51.494;11.958;2024-02-21T00:34:09;11.03;;;3.87;;
7191;SDS011;3637;51.494;11.958;2024-02-21T00:37:16;11.17;;;4.00;;
7191;SDS011;3637;51.494;11.958;2024-02-21T00:40:20;10.00;;;3.70;;
7191;SDS011;3637;51.494;11.958;2024-02-21T00:43:23;10.10;;;4.10;;
7191;SDS011;3637;51.494;11.958;2024-02-21T00:46:25;15.13;;;4.20;;
7191;SDS011;3637;51.494;11.958;2024-02-21T00:49:30;9.97;;;4.37;;
7191;SDS011;3637;51.494;11.958;2024-02-21T00:52:33;11.10;;;4.30;;
7191;SDS011;3637;51.494;11.958;2024-02-21T00:55:39;10.07;;;4.57;;
7191;SDS011;3637;51.494;11.958;2024-02-21T00:58:43;7.37;;;3.50;;
7191;SDS011;3637;51.494;11.958;2024-02-21T01:01:53;7.90;;;3.93;;
7191;SDS011;3637;51.494;11.958;2024-02-21T01:04:55;12.97;;;3.93;;
7191;SDS011;3637;51.494;11.958;2024-02-21T01:07:59;12.40;;;4.07;;
7191;SDS011;3637;51.494;11.958;2024-02-21T01:11:03;9.97;;;3.67;;
7191;SDS011;3637;51.494;11.958;2024-02-21T01:14:05;10.17;;;4.07;;
7191;SDS011;3637;51.494;11.958;2024-02-21T01:17:12;10.10;;;3.53;;
7191;SDS011;3637;51.494;11.958;2024-02-21T01:20:18;14.87;;;4.60;;
7191;SDS011;3637;51.494;11.958;2024-02-21T01:23:22;7.97;;;3.90;;
7191;SDS011;3637;51.494;11.958;2024-02-21T01:26:29;10.23;;;3.90;;
7191;SDS011;3637;51.494;11.958;2024-02-21T01:29:34;10.27;;;3.93;;
7191;SDS011;3637;51.494;11.958;2024-02-21T01:32:37;10.10;;;3.90;;
7191;SDS011;3637;51.494;11.958;2024-02-21T01:35:39;13.67;;;3.93;;
7191;SDS011;3637;51.494;11.958;2024-02-21T01:38:43;15.03;;;4.30;;
7191;SDS011;3637;51.494;11.958;2024-02-21T01:41:50;13.97;;;4.53;;
7191;SDS011;3637;51.494;11.958;2024-02-21T01:44:54;10.40;;;4.40;;
7191;SDS011;3637;51.494;11.958;2024-02-21T01:47:59;9.93;;;3.77;;
7191;SDS011;3637;51.494;11.958;2024-02-21T01:51:01;8.77;;;3.67;;
7191;SDS011;3637;51.494;11.958;2024-02-21T01:54:12;10.73;;;3.80;;
7191;SDS011;3637;51.494;11.958;2024-02-21T01:57:19;9.90;;;3.50;;
7191;SDS011;3637;51.494;11.958;2024-02-21T02:00:24;11.77;;;4.00;;
7191;SDS011;3637;51.494;11.958;2024-02-21T02:03:27;7.40;;;3.67;;
7191;SDS011;3637;51.494;11.958;2024-02-21T02:06:30;8.10;;;3.77;;
7191;SDS011;3637;51.494;11.958;2024-02-21T02:09:34;11.93;;;4.30;;
7191;SDS011;3637;51.494;11.958;2024-02-21T02:12:40;11.10;;;4.70;;
7191;SDS011;3637;51.494;11.958;2024-02-21T02:15:46;11.00;;;3.77;;
7191;SDS011;3637;51.494;11.958;2024-02-21T02:18:50;11.57;;;4.13;;
7191;SDS011;3637;51.494;11.958;2024-02-21T02:21:53;9.50;;;3.47;;
7191;SDS011;3637;51.494;11.958;2024-02-21T02:28:20;7.63;;;3.97;;
7191;SDS011;3637;51.494;11.958;2024-02-21T02:31:23;9.73;;;3.87;;
7191;SDS011;3637;51.494;11.958;2024-02-21T02:34:25;8.90;;;3.90;;
7191;SDS011;3637;51.494;11.958;2024-02-21T02:37:28;13.50;;;4.40;;
7191;SDS011;3637;51.494;11.958;2024-02-21T02:40:37;7.30;;;3.37;;
7191;SDS011;3637;51.494;11.958;2024-02-21T02:43:40;9.50;;;3.63;;
7191;SDS011;3637;51.494;11.958;2024-02-21T02:46:42;9.00;;;4.30;;
7191;SDS011;3637;51.494;11.958;2024-02-21T02:49:45;9.97;;;4.03;;
7191;SDS011;3637;51.494;11.958;2024-02-21T02:52:52;10.43;;;4.53;;
7191;SDS011;3637;51.494;11.958;2024-02-21T02:55:57;12.53;;;3.80;;
7191;SDS011;3637;51.494;11.958;2024-02-21T02:58:59;9.53;;;3.77;;
7191;SDS011;3637;51.494;11.958;2024-02-21T03:02:03;8.50;;;3.90;;
7191;SDS011;3637;51.494;11.958;2024-02-21T03:05:11;11.37;;;4.00;;
7191;SDS011;3637;51.494;11.958;2024-02-21T03:08:15;7.93;;;3.40;;
7191;SDS011;3637;51.494;11.958;2024-02-21T03:11:24;9.30;;;4.97;;
7191;SDS011;3637;51.494;11.958;2024-02-21T03:14:28;11.50;;;4.13;;
7191;SDS011;3637;51.494;11.958;2024-02-21T03:17:30;9.93;;;4.23;;
7191;SDS011;3637;51.494;11.958;2024-02-21T03:20:34;9.60;;;4.00;;
7191;SDS011;3637;51.494;11.958;2024-02-21T03:23:38;10.40;;;4.07;;
7191;SDS011;3637;51.494;11.958;2024-02-21T03:26:43;9.30;;;4.50;;
7191;SDS011;3637;51.494;11.958;2024-02-21T03:29:51;9.47;;;4.00;;
7191;SDS011;3637;51.494;11.958;2024-02-21T03:32:54;14.27;;;4.60;;
7191;SDS011;3637;51.494;11.958;2024-02-21T03:35:57;10.13;;;3.73;;
7191;SDS011;3637;51.494;11.958;2024-02-21T03:38:59;10.47;;;4.10;;
7191;SDS011;3637;51.494;11.958;2024-02-21T03:42:04;7.03;;;3.80;;
7191;SDS011;3637;51.494;11.958;2024-02-21T03:45:09;8.70;;;3.63;;
7191;SDS011;3637;51.494;11.958;2024-02-21T03:48:12;8.03;;;3.97;;
7191;SDS011;3637;51.494;11.958;2024-02-21T03:51:20;13.27;;;4.63;;
7191;SDS011;3637;51.494;11.958;2024-02-21T03:54:22;10.47;;;4.23;;
7191;SDS011;3637;51.494;11.958;2024-02-21T04:00:47;12.20;;;4.17;;
7191;SDS011;3637;51.494;11.958;2024-02-21T04:03:50;7.63;;;4.13;;
7191;SDS011;3637;51.494;11.958;2024-02-21T04:06:56;11.77;;;4.30;;
7191;SDS011;3637;51.494;11.958;2024-02-21T04:09:58;13.13;;;4.50;;
7191;SDS011;3637;51.494;11.958;2024-02-21T04:13:04;10.40;;;5.00;;
7191;SDS011;3637;51.494;11.958;2024-02-21T04:16:07;9.83;;;4.73;;
7191;SDS011;3637;51.494;11.958;2024-02-21T04:19:14;14.80;;;5.43;;
7191;SDS011;3637;51.494;11.958;2024-02-21T04:22:17;11.37;;;4.03;;
7191;SDS011;3637;51.494;11.958;2024-02-21T04:25:20;9.57;;;4.70;;
7191;SDS011;3637;51.494;11.958;2024-02-21T04:28:29;11.43;;;4.70;;
7191;SDS011;3637;51.494;11.958;2024-02-21T04:31:32;9.67;;;4.67;;
7191;SDS011;3637;51.494;11.958;2024-02-21T04:34:34;8.30;;;4.37;;
7191;SDS011;3637;51.494;11.958;2024-02-21T04:37:37;8.73;;;4.60;;
7191;SDS011;3637;51.494;11.958;2024-02-21T04:40:40;11.10;;;4.67;;
7191;SDS011;3637;51.494;11.958;2024-02-21T04:43:51;10.90;;;5.27;;
7191;SDS011;3637;51.494;11.958;2024-02-21T04:46:57;8.57;;;4.60;;
7191;SDS011;3637;51.494;11.958;2024-02-21T04:50:03;10.77;;;4.60;;
7191;SDS011;3637;51.494;11.958;2024-02-21T04:53:12;12.90;;;5.13;;
7191;SDS011;3637;51.494;11.958;2024-02-21T04:56:16;12.10;;;5.47;;
7191;SDS011;3637;51.494;11.958;2024-02-21T04:59:30;11.80;;;5.47;;
7191;SDS011;3637;51.494;11.958;2024-02-21T05:02:37;10.43;;;4.97;;
7191;SDS011;3637;51.494;11.958;2024-02-21T05:05:41;11.17;;;5.57;;
7191;SDS011;3637;51.494;11.958;2024-02-21T05:08:46;13.00;;;5.40;;
7191;SDS011;3637;51.494;11.958;2024-02-21T05:11:53;9.77;;;5.23;;
7191;SDS011;3637;51.494;11.958;2024-02-21T05:15:07;13.03;;;5.70;;
7191;SDS011;3637;51.494;11.958;2024-02-21T05:18:11;13.13;;;5.40;;
7191;SDS011;3637;51.494;11.958;2024-02-21T05:21:15;8.80;;;5.30;;
7191;SDS011;3637;51.494;11.958;2024-02-21T05:24:19;13.80;;;6.20;;
7191;SDS011;3637;51.494;11.958;2024-02-21T05:27:24;11.90;;;5.80;;
7191;SDS011;3637;51.494;11.958;2024-02-21T05:30:37;10.87;;;5.87;;
7191;SDS011;3637;51.494;11.958;2024-02-21T05:33:41;17.30;;;7.93;;
7191;SDS011;3637;51.494;11.958;2024-02-21T05:36:45;13.33;;;5.60;;
7191;SDS011;3637;51.494;11.958;2024-02-21T05:39:52;16.70;;;5.77;;
7191;SDS011;3637;51.494;11.958;2024-02-21T05:42:54;11.93;;;6.00;;
7191;SDS011;3637;51.494;11.958;2024-02-21T05:46:02;15.63;;;6.53;;
7191;SDS011;3637;51.494;11.958;2024-02-21T05:49:04;17.10;;;6.87;;
7191;SDS011;3637;51.494;11.958;2024-02-21T05:52:08;16.07;;;6.23;;
7191;SDS011;3637;51.494;11.958;2024-02-21T05:55:11;12.30;;;6.23;;
7191;SDS011;3637;51.494;11.958;2024-02-21T05:58:15;16.07;;;7.77;;
7191;SDS011;3637;51.494;11.958;2024-02-21T06:01:27;14.20;;;7.23;;
7191;SDS011;3637;51.494;11.958;2024-02-21T06:04:29;12.73;;;6.43;;
7191;SDS011;3637;51.494;11.958;2024-02-21T06:07:35;14.50;;;6.80;;
7191;SDS011;3637;51.494;11.958;2024-02-21T06:10:39;15.83;;;7.00;;
7191;SDS011;3637;51.494;11.958;2024-02-21T06:13:41;15.30;;;7.57;;
7191;SDS011;3637;51.494;11.958;2024-02-21T06:16:49;14.03;;;6.70;;
7191;SDS011;3637;51.494;11.958;2024-02-21T06:19:51;15.97;;;7.53;;
7191;SDS011;3637;51.494;11.958;2024-02-21T06:22:54;19.73;;;8.20;;
7191;SDS011;3637;51.494;11.958;2024-02-21T06:25:57;18.37;;;7.30;;
7191;SDS011;3637;51.494;11.958;2024-02-21T06:29:04;15.17;;;7.17;;
7191;SDS011;3637;51.494;11.958;2024-02-21T06:32:09;12.97;;;6.37;;
7191;SDS011;3637;51.494;11.958;2024-02-21T06:35:12;13.97;;;7.57;;
7191;SDS011;3637;51.494;11.958;2024-02-21T06:38:18;16.03;;;6.43;;
7191;SDS011;3637;51.494;11.958;2024-02-21T06:41:24;14.40;;;6.60;;
7191;SDS011;3637;51.494;11.958;2024-02-21T06:44:26;13.67;;;6.00;;
7191;SDS011;3637;51.494;11.958;2024-02-21T06:47:31;9.47;;;5.60;;
7191;SDS011;3637;51.494;11.958;2024-02-21T06:50:32;13.27;;;6.43;;
7191;SDS011;3637;51.494;11.958;2024-02-21T06:53:39;12.97;;;6.03;;
7191;SDS011;3637;51.494;11.958;2024-02-21T06:56:42;13.07;;;5.90;;
7191;SDS011;3637;51.494;11.958;2024-02-21T06:59:47;10.53;;;6.03;;
7191;SDS011;3637;51.494;11.958;2024-02-21T07:02:54;8.70;;;5.70;;
7191;SDS011;3637;51.494;11.958;2024-02-21T07:05:59;13.73;;;6.97;;
7191;SDS011;3637;51.494;11.958;2024-02-21T07:09:01;12.33;;;6.50;;
7191;SDS011;3637;51.494;11.958;2024-02-21T07:12:05;10.97;;;5.53;;
7191;SDS011;3637;51.494;11.958;2024-02-21T07:15:10;9.43;;;5.70;;
7191;SDS011;3637;51.494;11.958;2024-02-21T07:18:15;12.57;;;5.63;;
7191;SDS011;3637;51.494;11.958;2024-02-21T07:21:18;11.47;;;5.63;;
7191;SDS011;3637;51.494;11.958;2024-02-21T07:24:22;11.07;;;6.07;;
7191;SDS011;3637;51.494;11.958;2024-02-21T07:27:28;9.20;;;5.57;;
7191;SDS011;3637;51.494;11.958;2024-02-21T07:30:35;14.23;;;7.43;;
7191;SDS011;3637;51.494;11.958;2024-02-21T07:33:40;9.70;;;5.80;;
7191;SDS011;3637;51.494;11.958;2024-02-21T07:36:42;13.23;;;5.90;;
7191;SDS011;3637;51.494;11.958;2024-02-21T07:39:47;12.13;;;6.40;;
7191;SDS011;3637;51.494;11.958;2024-02-21T07:42:50;13.37;;;5.80;;
7191;SDS011;3637;51.494;11.958;2024-02-21T07:45:56;10.90;;;5.37;;
7191;SDS011;3637;51.494;11.958;2024-02-21T07:49:01;11.20;;;5.57;;
7191;SDS011;3637;51.494;11.958;2024-02-21T07:52:03;12.70;;;5.47;;
7191;SDS011;3637;51.494;11.958;2024-02-21T07:55:06;11.97;;;5.90;;
7191;SDS011;3637;51.494;11.958;2024-02-21T07:58:22;12.57;;;5.67;;
7191;SDS011;3637;51.494;11.958;2024-02-21T08:01:24;9.43;;;5.70;;
7191;SDS011;3637;51.494;11.958;2024-02-21T08:04:44;11.93;;;5.87;;
7191;SDS011;3637;51.494;11.958;2024-02-21T08:07:48;10.33;;;5.53;;
7191;SDS011;3637;51.494;11.958;2024-02-21T08:10:54;13.07;;;6.03;;
7191;SDS011;3637;51.494;11.958;2024-02-21T08:13:56;12.33;;;5.70;;
7191;SDS011;3637;51.494;11.958;2024-02-21T08:17:03;9.07;;;5.63;;
7191;SDS011;3637;51.494;11.958;2024-02-21T08:20:11;11.00;;;5.50;;
7191;SDS011;3637;51.494;11.958;2024-02-21T08:23:15;14.27;;;6.37;;
7191;SDS011;3637;51.494;11.958;2024-02-21T08:26:19;12.10;;;6.43;;
7191;SDS011;3637;51.494;11.958;2024-02-21T08:29:22;12.90;;;5.87;;
7191;SDS011;3637;51.494;11.958;2024-02-21T08:32:24;12.37;;;6.50;;
7191;SDS011;3637;51.494;11.958;2024-02-21T08:35:29;10.23;;;5.77;;
7191;SDS011;3637;51.494;11.958;2024-02-21T08:38:31;11.73;;;5.60;;
7191;SDS011;3637;51.494;11.958;2024-02-21T08:41:35;11.80;;;5.73;;
7191;SDS011;3637;51.494;11.958;2024-02-21T08:44:40;11.17;;;5.47;;
7191;SDS011;3637;51.494;11.958;2024-02-21T08:47:44;10.87;;;5.60;;
7191;SDS011;3637;51.494;11.958;2024-02-21T08:50:51;10.37;;;5.27;;
7191;SDS011;3637;51.494;11.958;2024-02-21T08:53:54;10.87;;;5.27;;
7191;SDS011;3637;51.494;11.958;2024-02-21T08:56:58;10.40;;;4.90;;
7191;SDS011;3637;51.494;11.958;2024-02-21T09:00:04;9.83;;;5.07;;
7191;SDS011;3637;51.494;11.958;2024-02-21T09:03:09;10.43;;;5.40;;
7191;SDS011;3637;51.494;11.958;2024-02-21T09:06:21;10.07;;;5.27;;
7191;SDS011;3637;51.494;11.958;2024-02-21T09:09:23;9.33;;;4.80;;
7191;SDS011;3637;51.494;11.958;2024-02-21T09:12:29;10.47;;;5.00;;
7191;SDS011;3637;51.494;11.958;2024-02-21T09:15:36;9.13;;;5.03;;
7191;SDS011;3637;51.494;11.958;2024-02-21T09:18:39;9.27;;;4.77;;
7191;SDS011;3637;51.494;11.958;2024-02-21T09:21:50;8.07;;;4.60;;
7191;SDS011;3637;51.494;11.958;2024-02-21T09:24:53;11.80;;;4.60;;
7191;SDS011;3637;51.494;11.958;2024-02-21T09:27:57;11.47;;;4.73;;
7191;SDS011;3637;51.494;11.958;2024-02-21T09:30:59;7.13;;;4.63;;
7191;SDS011;3637;51.494;11.958;2024-02-21T09:34:02;8.73;;;4.90;;
7191;SDS011;3637;51.494;11.958;2024-02-21T09:37:15;9.07;;;5.00;;
7191;SDS011;3637;51.494;11.958;2024-02-21T09:40:17;10.10;;;4.57;;
7191;SDS011;3637;51.494;11.958;2024-02-21T09:43:23;8.00;;;4.23;;
7191;SDS011;3637;51.494;11.958;2024-02-21T09:46:30;10.67;;;4.37;;
7191;SDS011;3637;51.494;11.958;2024-02-21T09:49:40;9.10;;;4.50;;
7191;SDS011;3637;51.494;11.958;2024-02-21T09:52:45;11.47;;;5.47;;
7191;SDS011;3637;51.494;11.958;2024-02-21T09:55:50;9.00;;;4.97;;
7191;SDS011;3637;51.494;11.958;2024-02-21T09:58:54;7.20;;;4.50;;
7191;SDS011;3637;51.494;11.958;2024-02-21T10:01:58;10.00;;;4.37;;
7191;SDS011;3637;51.494;11.958;2024-02-21T10:05:03;9.60;;;4.87;;
7191;SDS011;3637;51.494;11.958;2024-02-21T10:08:13;10.43;;;4.90;;
7191;SDS011;3637;51.494;11.958;2024-02-21T10:11:21;8.93;;;4.37;;
7191;SDS011;3637;51.494;11.958;2024-02-21T10:14:24;8.00;;;4.40;;
7191;SDS011;3637;51.494;11.958;2024-02-21T10:17:26;8.37;;;4.30;;
7191;SDS011;3637;51.494;11.958;2024-02-21T10:20:30;8.87;;;4.53;;
7191;SDS011;3637;51.494;11.958;2024-02-21T10:23:48;6.77;;;4.30;;
7191;SDS011;3637;51.494;11.958;2024-02-21T10:26:59;9.87;;;4.50;;
7191;SDS011;3637;51.494;11.958;2024-02-21T10:30:12;10.83;;;4.37;;
7191;SDS011;3637;51.494;11.958;2024-02-21T10:33:21;7.63;;;4.40;;
7191;SDS011;3637;51.494;11.958;2024-02-21T10:36:28;9.90;;;4.07;;
7191;SDS011;3637;51.494;11.958;2024-02-21T10:39:40;9.10;;;4.60;;
7191;SDS011;3637;51.494;11.958;2024-02-21T10:42:44;9.47;;;4.50;;
7191;SDS011;3637;51.494;11.958;2024-02-21T10:45:48;9.57;;;4.70;;
7191;SDS011;3637;51.494;11.958;2024-02-21T10:48:55;10.97;;;4.07;;
7191;SDS011;3637;51.494;11.958;2024-02-21T10:52:14;6.77;;;4.57;;
7191;SDS011;3637;51.494;11.958;2024-02-21T10:55:31;9.73;;;4.17;;
7191;SDS011;3637;51.494;11.958;2024-02-21T10:58:40;8.07;;;3.73;;
7191;SDS011;3637;51.494;11.958;2024-02-21T11:01:44;10.53;;;3.93;;
7191;SDS011;3637;51.494;11.958;2024-02-21T11:04:46;5.70;;;3.80;;
7191;SDS011;3637;51.494;11.958;2024-02-21T11:07:49;7.30;;;3.90;;
7191;SDS011;3637;51.494;11.958;2024-02-21T11:10:58;8.93;;;3.97;;
7191;SDS011;3637;51.494;11.958;2024-02-21T11:14:05;6.73;;;3.50;;
7191;SDS011;3637;51.494;11.958;2024-02-21T11:17:18;4.67;;;2.80;;
7191;SDS011;3637;51.494;11.958;2024-02-21T11:20:21;6.37;;;3.70;;
7191;SDS011;3637;51.494;11.958;2024-02-21T11:23:34;5.63;;;3.23;;
7191;SDS011;3637;51.494;11.958;2024-02-21T11:26:39;6.83;;;4.00;;
7191;SDS011;3637;51.494;11.958;2024-02-21T11:29:42;6.20;;;2.70;;
7191;SDS011;3637;51.494;11.958;2024-02-21T11:32:44;4.30;;;2.60;;
7191;SDS011;3637;51.494;11.958;2024-02-21T11:35:47;6.67;;;2.47;;
7191;SDS011;3637;51.494;11.958;2024-02-21T11:39:02;5.87;;;2.70;;
7191;SDS011;3637;51.494;11.958;2024-02-21T11:42:13;6.83;;;3.17;;
7191;SDS011;3637;51.494;11.958;2024-02-21T11:45:20;4.50;;;2.90;;
7191;SDS011;3637;51.494;11.958;2024-02-21T11:48:32;7.53;;;3.17;;
7191;SDS011;3637;51.494;11.958;2024-02-21T11:51:35;5.87;;;3.00;;
7191;SDS011;3637;51.494;11.958;2024-02-21T11:54:39;11.37;;;5.13;;
7191;SDS011;3637;51.494;11.958;2024-02-21T11:57:47;8.83;;;3.57;;
7191;SDS011;3637;51.494;11.958;2024-02-21T12:01:00;7.97;;;4.07;;
7191;SDS011;3637;51.494;11.958;2024-02-21T12:04:05;5.50;;;3.43;;
7191;SDS011;3637;51.494;11.958;2024-02-21T12:07:07;8.23;;;4.00;;
7191;SDS011;3637;51.494;11.958;2024-02-21T12:10:10;6.43;;;3.40;;
7191;SDS011;3637;51.494;11.958;2024-02-21T12:13:14;8.00;;;4.00;;
7191;SDS011;3637;51.494;11.958;2024-02-21T12:16:16;8.77;;;4.47;;
7191;SDS011;3637;51.494;11.958;2024-02-21T12:19:22;12.63;;;4.27;;
7191;SDS011;3637;51.494;11.958;2024-02-21T12:22:27;9.97;;;3.67;;
7191;SDS011;3637;51.494;11.958;2024-02-21T12:25:33;5.10;;;3.63;;
7191;SDS011;3637;51.494;11.958;2024-02-21T12:28:39;5.90;;;3.90;;
7191;SDS011;3637;51.494;11.958;2024-02-21T12:31:40;4.93;;;3.70;;
7191;SDS011;3637;51.494;11.958;2024-02-21T12:34:43;6.27;;;4.00;;
7191;SDS011;3637;51.494;11.958;2024-02-21T12:37:45;7.70;;;3.77;;
7191;SDS011;3637;51.494;11.958;2024-02-21T12:40:47;7.17;;;4.00;;
7191;SDS011;3637;51.494;11.958;2024-02-21T12:43:51;7.80;;;4.07;;
7191;SDS011;3637;51.494;11.958;2024-02-21T12:46:53;7.37;;;4.10;;
7191;SDS011;3637;51.494;11.958;2024-02-21T12:49:56;5.87;;;3.63;;
7191;SDS011;3637;51.494;11.958;2024-02-21T12:52:59;9.97;;;4.13;;
7191;SDS011;3637;51.494;11.958;2024-02-21T12:56:02;8.27;;;4.40;;
7191;SDS011;3637;51.494;11.958;2024-02-21T12:59:12;7.27;;;3.90;;
7191;SDS011;3637;51.494;11.958;2024-02-21T13:02:20;8.87;;;4.27;;
7191;SDS011;3637;51.494;11.958;2024-02-21T13:05:22;8.00;;;3.97;;
7191;SDS011;3637;51.494;11.958;2024-02-21T13:08:24;9.37;;;3.90;;
7191;SDS011;3637;51.494;11.958;2024-02-21T13:11:27;5.97;;;4.00;;
7191;SDS011;3637;51.494;11.958;2024-02-21T13:14:35;6.40;;;4.07;;
7191;SDS011;3637;51.494;11.958;2024-02-21T13:17:38;8.00;;;4.07;;
7191;SDS011;3637;51.494;11.958;2024-02-21T13:20:40;8.50;;;3.87;;
7191;SDS011;3637;51.494;11.958;2024-02-21T13:23:43;7.67;;;4.23;;
7191;SDS011;3637;51.494;11.958;2024-02-21T13:26:46;8.30;;;3.87;;
7191;SDS011;3637;51.494;11.958;2024-02-21T13:29:53;6.20;;;4.23;;
7191;SDS011;3637;51.494;11.958;2024-02-21T13:32:56;8.30;;;4.20;;
7191;SDS011;3637;51.494;11.958;2024-02-21T13:35:59;7.80;;;4.33;;
7191;SDS011;3637;51.494;11.958;2024-02-21T13:39:05;9.10;;;4.57;;
7191;SDS011;3637;51.494;11.958;2024-02-21T13:42:13;8.57;;;4.40;;
7191;SDS011;3637;51.494;11.958;2024-02-21T13:45:22;6.67;;;4.50;;
7191;SDS011;3637;51.494;11.958;2024-02-21T13:48:24;7.90;;;4.10;;
7191;SDS011;3637;51.494;11.958;2024-02-21T13:51:29;11.23;;;4.70;;
7191;SDS011;3637;51.494;11.958;2024-02-21T13:54:32;8.27;;;4.43;;
7191;SDS011;3637;51.494;11.958;2024-02-21T13:57:34;6.20;;;4.00;;
7191;SDS011;3637;51.494;11.958;2024-02-21T14:00:43;8.57;;;4.63;;
7191;SDS011;3637;51.494;11.958;2024-02-21T14:03:46;7.00;;;4.40;;
7191;SDS011;3637;51.494;11.958;2024-02-21T14:06:51;8.97;;;5.47;;
7191;SDS011;3637;51.494;11.958;2024-02-21T14:10:12;7.33;;;4.37;;
7191;SDS011;3637;51.494;11.958;2024-02-21T14:13:14;8.03;;;4.20;;
7191;SDS011;3637;51.494;11.958;2024-02-21T14:16:26;8.13;;;4.40;;
7191;SDS011;3637;51.494;11.958;2024-02-21T14:19:30;5.90;;;4.10;;
7191;SDS011;3637;51.494;11.958;2024-02-21T14:22:33;7.97;;;4.77;;
7191;SDS011;3637;51.494;11.958;2024-02-21T14:25:38;6.27;;;3.93;;
7191;SDS011;3637;51.494;11.958;2024-02-21T14:28:42;9.67;;;4.50;;
7191;SDS011;3637;51.494;11.958;2024-02-21T14:31:47;9.60;;;4.90;;
7191;SDS011;3637;51.494;11.958;2024-02-21T14:34:53;7.73;;;4.40;;
7191;SDS011;3637;51.494;11.958;2024-02-21T14:37:56;11.40;;;4.73;;
7191;SDS011;3637;51.494;11.958;2024-02-21T14:41:03;9.80;;;4.87;;
7191;SDS011;3637;51.494;11.958;2024-02-21T14:44:05;8.03;;;4.50;;
7191;SDS011;3637;51.494;11.958;2024-02-21T14:47:17;7.43;;;4.93;;
7191;SDS011;3637;51.494;11.958;2024-02-21T14:50:21;10.10;;;4.73;;
7191;SDS011;3637;51.494;11.958;2024-02-21T14:53:26;9.50;;;4.47;;
7191;SDS011;3637;51.494;11.958;2024-02-21T14:56:31;9.33;;;4.40;;
7191;SDS011;3637;51.494;11.958;2024-02-21T14:59:36;9.60;;;4.37;;
7191;SDS011;3637;51.494;11.958;2024-02-21T15:02:43;8.60;;;4.50;;
7191;SDS011;3637;51.494;11.958;2024-02-21T15:05:46;6.43;;;4.60;;
7191;SDS011;3637;51.494;11.958;2024-02-21T15:08:49;11.80;;;4.90;;
7191;SDS011;3637;51.494;11.958;2024-02-21T15:11:52;11.50;;;5.10;;
7191;SDS011;3637;51.494;11.958;2024-02-21T15:14:55;9.67;;;4.60;;
7191;SDS011;3637;51.494;11.958;2024-02-21T15:17:59;10.43;;;4.63;;
7191;SDS011;3637;51.494;11.958;2024-02-21T15:21:04;9.57;;;4.33;;
7191;SDS011;3637;51.494;11.958;2024-02-21T15:24:11;7.57;;;4.47;;
7191;SDS011;3637;51.494;11.958;2024-02-21T15:27:15;9.33;;;4.60;;
7191;SDS011;3637;51.494;11.958;2024-02-21T15:30:17;18.03;;;5.43;;
7191;SDS011;3637;51.494;11.958;2024-02-21T15:33:32;8.70;;;4.43;;
7191;SDS011;3637;51.494;11.958;2024-02-21T15:36:35;7.23;;;4.70;;
7191;SDS011;3637;51.494;11.958;2024-02-21T15:39:41;10.33;;;4.40;;
7191;SDS011;3637;51.494;11.958;2024-02-21T15:42:44;9.33;;;4.50;;
7191;SDS011;3637;51.494;11.958;2024-02-21T15:45:47;13.60;;;5.17;;
7191;SDS011;3637;51.494;11.958;2024-02-21T15:48:53;12.23;;;5.17;;
7191;SDS011;3637;51.494;11.958;2024-02-21T15:51:57;10.07;;;5.87;;
7191;SDS011;3637;51.494;11.958;2024-02-21T15:54:59;9.97;;;5.33;;
7191;SDS011;3637;51.494;11.958;2024-02-21T15:58:06;7.87;;;4.87;;
7191;SDS011;3637;51.494;11.958;2024-02-21T16:01:10;8.73;;;4.77;;
7191;SDS011;3637;51.494;11.958;2024-02-21T16:04:18;9.23;;;5.37;;
7191;SDS011;3637;51.494;11.958;2024-02-21T16:07:23;8.43;;;5.17;;
7191;SDS011;3637;51.494;11.958;2024-02-21T16:10:31;10.73;;;5.20;;
7191;SDS011;3637;51.494;11.958;2024-02-21T16:13:36;9.60;;;4.50;;
7191;SDS011;3637;51.494;11.958;2024-02-21T16:16:42;8.73;;;4.83;;
7191;SDS011;3637;51.494;11.958;2024-02-21T16:20:01;11.30;;;5.10;;
7191;SDS011;3637;51.494;11.958;2024-02-21T16:23:04;9.87;;;4.47;;
7191;SDS011;3637;51.494;11.958;2024-02-21T16:26:10;6.50;;;4.20;;
7191;SDS011;3637;51.494;11.958;2024-02-21T16:29:17;8.43;;;4.50;;
7191;SDS011;3637;51.494;11.958;2024-02-21T16:32:23;6.67;;;5.07;;
7191;SDS011;3637;51.494;11.958;2024-02-21T16:35:32;9.70;;;4.73;;
7191;SDS011;3637;51.494;11.958;2024-02-21T16:38:37;9.17;;;4.77;;
7191;SDS011;3637;51.494;11.958;2024-02-21T16:41:41;8.70;;;4.30;;
7191;SDS011;3637;51.494;11.958;2024-02-21T16:44:45;8.87;;;4.00;;
7191;SDS011;3637;51.494;11.958;2024-02-21T16:47:51;8.33;;;3.93;;
7191;SDS011;3637;51.494;11.958;2024-02-21T16:51:04;7.77;;;3.90;;
7191;SDS011;3637;51.494;11.958;2024-02-21T16:54:12;7.63;;;3.83;;
7191;SDS011;3637;51.494;11.958;2024-02-21T16:57:23;7.17;;;3.50;;
7191;SDS011;3637;51.494;11.958;2024-02-21T17:00:28;5.57;;;3.57;;
7191;SDS011;3637;51.494;11.958;2024-02-21T17:03:35;7.57;;;3.73;;
7191;SDS011;3637;51.494;11.958;2024-02-21T17:10:03;8.97;;;3.50;;
7191;SDS011;3637;51.494;11.958;2024-02-21T17:13:06;7.67;;;5.10;;
7191;SDS011;3637;51.494;11.958;2024-02-21T17:16:12;6.73;;;3.67;;
7191;SDS011;3637;51.494;11.958;2024-02-21T17:19:15;8.00;;;3.20;;
7191;SDS011;3637;51.494;11.958;2024-02-21T17:22:21;5.23;;;2.90;;
7191;SDS011;3637;51.494;11.958;2024-02-21T17:25:26;5.87;;;3.10;;
7191;SDS011;3637;51.494;11.958;2024-02-21T17:28:29;4.93;;;3.03;;
7191;SDS011;3637;51.494;11.958;2024-02-21T17:31:33;5.50;;;3.20;;
7191;SDS011;3637;51.494;11.958;2024-02-21T17:34:39;4.83;;;2.80;;
7191;SDS011;3637;51.494;11.958;2024-02-21T17:37:47;8.53;;;3.10;;
7191;SDS011;3637;51.494;11.958;2024-02-21T17:40:49;6.23;;;3.23;;
7191;SDS011;3637;51.494;11.958;2024-02-21T17:43:53;7.53;;;3.40;;
7191;SDS011;3637;51.494;11.958;2024-02-21T17:46:56;6.93;;;3.03;;
7191;SDS011;3637;51.494;11.958;2024-02-21T17:50:00;5.67;;;2.90;;
7191;SDS011;3637;51.494;11.958;2024-02-21T17:56:25;5.60;;;3.20;;
7191;SDS011;3637;51.494;11.958;2024-02-21T17:59:31;6.03;;;2.83;;
7191;SDS011;3637;51.494;11.958;2024-02-21T18:02:41;7.43;;;3.00;;
7191;SDS011;3637;51.494;11.958;2024-02-21T18:05:45;4.53;;;2.80;;
7191;SDS011;3637;51.494;11.958;2024-02-21T18:08:53;8.30;;;3.20;;
7191;SDS011;3637;51.494;11.958;2024-02-21T18:12:07;6.67;;;3.10;;
7191;SDS011;3637;51.494;11.958;2024-02-21T18:15:20;4.87;;;2.87;;
7191;SDS011;3637;51.494;11.958;2024-02-21T18:18:25;5.90;;;2.90;;
7191;SDS011;3637;51.494;11.958;2024-02-21T18:21:32;7.00;;;3.30;;
7191;SDS011;3637;51.494;11.958;2024-02-21T18:24:40;5.63;;;2.83;;
7191;SDS011;3637;51.494;11.958;2024-02-21T18:27:49;3.60;;;2.63;;
7191;SDS011;3637;51.494;11.958;2024-02-21T18:30:54;5.70;;;2.77;;
7191;SDS011;3637;51.494;11.958;2024-02-21T18:33:57;5.93;;;2.97;;
7191;SDS011;3637;51.494;11.958;2024-02-21T18:37:04;4.23;;;2.80;;
7191;SDS011;3637;51.494;11.958;2024-02-21T18:40:09;6.17;;;3.10;;
7191;SDS011;3637;51.494;11.958;2024-02-21T18:43:14;6.53;;;2.90;;
7191;SDS011;3637;51.494;11.958;2024-02-21T18:46:16;7.63;;;2.80;;
7191;SDS011;3637;51.494;11.958;2024-02-21T18:49:21;5.33;;;2.80;;
7191;SDS011;3637;51.494;11.958;2024-02-21T18:52:25;6.03;;;2.87;;
7191;SDS011;3637;51.494;11.958;2024-02-21T18:55:31;7.30;;;3.10;;
7191;SDS011;3637;51.494;11.958;2024-02-21T18:58:36;5.03;;;3.20;;